Weather at Long Pasia Airport

Public forecast

Using degrees Celsius for public forecast. Weather courtesy of forecast.io.

Closest aviation weather report (METAR) to Long Pasia Airport

Closest report is Brunei International Airport, 57.4 nm (106.3 km) NW.

2024/02/24 10:00 (retrieved 37 minutes ago)

WBSB 241000Z 01009KT 9999 SCT015 FEW016CB SCT140 BKN300 29/27 Q1010 NOSIG

Closest aviation forecast (TAF) to Long Pasia Airport

Closest forecast is Brunei International Airport, 57.4 nm (106.3 km) NW.

2024/02/24 06:09 (retrieved 4 hours ago)

TAF WBSB 240500Z 2406/2512 01008KT 9999 FEW015 FEW016CB BECMG 2412/2414 06005KT FEW014 FEW015CB PROB30 TEMPO 2414/2416 7000 -TSRA